ASN logo
ASN Wikibase Occurrence # 231033
Last updated: 3 January 2020
This information is added by users of ASN. Neither ASN nor the Flight Safety Foundation are responsible for the completeness or correctness of this information. If you feel this information is incomplete or incorrect, you can submit corrected information.

Date:02-DEC-2019
Time:c. 09:20
Type:Silhouette image of generic BE9L model; specific model in this crash may look slightly different
Beechcraft C90GT King Air
Owner/operator:Setimio de Oliveira Sala
Registration: PP-BSS
C/n / msn: LJ-1839
Fatalities:Fatalities: 1 / Occupants: 1
Other fatalities:0
Aircraft damage: Written off (damaged beyond repair)
Location:Serra da Cantareira, SP -   Brazil
Phase: En route
Nature:Private
Departure airport:Jundiaí Airport, SP (QDV/SDJD)
Destination airport:São Paulo-Campo de Marte Airport, SP (SBMT)
Narrative:
A Beechcraft C90GT King Air crashed in a wooded area in Serra da Cantareira, São Paulo. At least one occupant died.
A data or voice recorder was found by rescue team.

METAR/SPECI from SBMT, Marte Civ / Mil (Brazil).

METAR SBMT 021000Z 15007KT 7000 FEW009 BKN011 19/17 Q1017=
METAR SBMT 021100Z 13009KT 7000 FEW011 BKN013 BKN017 19/16 Q1018=
METAR SBMT 021200Z 14013KT 8000 BKN013 OVC015 18/15 Q1019=
METAR SBMT 021300Z 14013KT 9999 FEW015 BKN017 BKN019 19/15 Q1019=

Sources:

https://www.jr.jor.br/2019/12/02/aviao-que-saiu-de-jundiai-cai-na-serra-da-cantareira/
https://sao-paulo.estadao.com.br/noticias/geral,aviao-cai-na-regiao-da-serra-da-cantareira,70003110340
https://www.correiodopovo.com.br/not%C3%ADcias/geral/avi%C3%A3o-cai-em-regi%C3%A3o-de-mata-na-serra-da-cantareira-em-s%C3%A3o-paulo-1.384124
https://g1.globo.com/sp/sao-paulo/noticia/2019/12/02/aviao-cai-na-serra-da-cantareira-em-sp.ghtml
https://www1.folha.uol.com.br/cotidiano/2019/12/aviao-cai-na-regiao-da-serra-da-cantareira-em-sp.shtml
https://cbn.globoradio.globo.com/media/audio/283877/aviao-de-pequeno-porte-cai-na-serra-da-cantareira-.htm
https://www.oantagonista.com/brasil/bombeiros-nao-encontram-sobreviventes-de-queda-de-aviao-na-serra-da-cantareira/

https://www.jetphotos.com/photo/8826155 (photo)


Revision history:

Date/timeContributorUpdates
02-Dec-2019 17:40 harro Added
02-Dec-2019 18:07 Iceman 29 Updated [Total fatalities, Total occupants, Other fatalities, Source, Embed code, Narrative]
02-Dec-2019 19:58 RobertMB Updated [Time, Operator, Phase, Nature, Source, Embed code, Narrative]
11-Dec-2019 18:35 Anon. Updated [Narrative]

Corrections or additions? ... Edit this accident description